Time;durP1;ratioP1;P1;durP2;ratioP2;P2;SDS_P1;SDS_P2;PMS_P1;PMS_P2;Temp;Humidity;BMP_temperature;BMP_pressure;BME280_temperature;BME280_humidity;BME280_pressure;Samples;Min_cycle;Max_cycle;Signal;HPM_P1;HPM_P2
2021/12/02 00:01:13;;;;;;;39.45;18.83;;;;;;;5.39;100.00;96552.16;5091410;28;20036;-75
2021/12/02 00:03:39;;;;;;;43.10;22.27;;;;;;;5.41;100.00;96551.88;5092531;28;20085;-76
2021/12/02 00:06:10;;;;;;;43.17;20.92;;;;;;;5.45;100.00;96533.09;5092782;28;20077;-75
2021/12/02 00:08:36;;;;;;;37.03;16.60;;;;;;;5.48;100.00;96540.66;5094026;28;20469;-81
2021/12/02 00:11:02;;;;;;;36.72;16.23;;;;;;;5.48;100.00;96543.34;5095411;28;20004;-80
2021/12/02 00:13:30;;;;;;;36.30;18.67;;;;;;;5.49;100.00;96536.81;5094458;28;20024;-76
2021/12/02 00:21:03;;;;;;;56.47;30.75;;;;;;;5.27;100.00;96534.75;5093260;28;20465;-75
2021/12/02 00:23:29;;;;;;;47.38;24.90;;;;;;;5.26;100.00;96533.94;5092348;28;20031;-76
2021/12/02 00:25:59;;;;;;;39.97;18.13;;;;;;;5.28;100.00;96534.47;5093779;28;20028;-77
2021/12/02 00:28:26;;;;;;;33.92;18.20;;;;;;;5.24;100.00;96538.84;5093910;28;20032;-75
2021/12/02 00:30:56;;;;;;;38.75;19.00;;;;;;;5.16;100.00;96536.03;5092109;28;20545;-75
2021/12/02 00:33:25;;;;;;;34.28;17.17;;;;;;;5.18;100.00;96523.78;5091498;28;20066;-74
2021/12/02 00:35:51;;;;;;;30.88;17.08;;;;;;;5.20;100.00;96518.84;5091613;28;20020;-75
2021/12/02 00:38:19;;;;;;;31.38;17.40;;;;;;;5.33;100.00;96509.16;5091116;28;20035;-75
2021/12/02 00:40:46;;;;;;;36.35;19.13;;;;;;;5.34;100.00;96506.16;5091291;28;20024;-75
2021/12/02 00:43:13;;;;;;;38.72;19.38;;;;;;;5.46;100.00;96502.16;5091239;28;20055;-74
2021/12/02 00:45:40;;;;;;;35.42;17.95;;;;;;;5.48;100.00;96518.94;5091744;28;20039;-76
2021/12/02 00:48:11;;;;;;;40.92;19.38;;;;;;;5.40;100.00;96523.94;5091245;28;20032;-74
2021/12/02 00:50:39;;;;;;;39.20;20.27;;;;;;;5.46;100.00;96523.84;5091102;28;20039;-74
2021/12/02 00:53:07;;;;;;;33.92;18.35;;;;;;;5.49;100.00;96525.97;5091124;28;20077;-74
2021/12/02 00:55:36;;;;;;;60.38;29.90;;;;;;;5.48;100.00;96527.09;5091004;28;20067;-76
2021/12/02 00:58:02;;;;;;;54.38;28.85;;;;;;;5.34;100.00;96522.44;5091140;28;20039;-75
2021/12/02 01:00:28;;;;;;;41.10;21.58;;;;;;;5.27;100.00;96529.31;5091070;28;20024;-75
2021/12/02 01:02:54;;;;;;;33.60;19.27;;;;;;;5.33;100.00;96525.41;5090947;28;20093;-74
2021/12/02 01:05:20;;;;;;;46.38;22.23;;;;;;;5.37;100.00;96521.84;5090938;28;20039;-74
2021/12/02 01:07:45;;;;;;;47.42;25.80;;;;;;;5.37;100.00;96513.69;5091017;28;20427;-75
2021/12/02 01:10:11;;;;;;;37.60;21.45;;;;;;;5.37;100.00;96516.41;5091063;28;20036;-74
2021/12/02 01:12:37;;;;;;;40.03;22.08;;;;;;;5.38;100.00;96518.03;5094199;28;20022;-74
2021/12/02 01:15:07;;;;;;;34.38;19.20;;;;;;;5.47;100.00;96511.91;5095360;28;20406;-75
2021/12/02 01:17:32;;;;;;;38.92;21.73;;;;;;;5.46;100.00;96507.59;5095397;28;20473;-76
2021/12/02 01:19:58;;;;;;;39.70;22.05;;;;;;;5.46;100.00;96505.69;5095179;28;20035;-75
2021/12/02 01:22:28;;;;;;;44.60;22.17;;;;;;;5.54;100.00;96509.63;5093756;28;20028;-75
2021/12/02 01:24:55;;;;;;;43.90;22.33;;;;;;;5.51;100.00;96507.50;5095155;28;20029;-75
2021/12/02 01:27:21;;;;;;;38.10;22.02;;;;;;;5.46;100.00;96496.75;5095336;28;20111;-76
2021/12/02 01:29:48;;;;;;;44.22;24.88;;;;;;;5.46;100.00;96496.75;5099181;28;20052;-86
2021/12/02 01:32:15;;;;;;;40.47;22.15;;;;;;;5.46;100.00;96499.44;5098685;28;20016;-74
2021/12/02 01:34:45;;;;;;;37.60;20.13;;;;;;;5.50;100.00;96495.03;5095102;28;20020;-75
2021/12/02 01:37:11;;;;;;;41.17;21.98;;;;;;;5.50;100.00;96487.72;5094786;28;20030;-76
2021/12/02 01:39:37;;;;;;;38.60;22.00;;;;;;;5.43;100.00;96475.66;5087800;28;20040;-74
2021/12/02 01:42:10;;;;;;;51.80;25.13;;;;;;;5.46;100.00;96470.44;5075445;28;20021;-74
2021/12/02 01:44:40;;;;;;;32.58;19.35;;;;;;;5.49;100.00;96477.16;5079718;28;20358;-76
2021/12/02 01:47:14;;;;;;;39.63;22.10;;;;;;;5.56;100.00;96470.25;5094586;28;20050;-76
2021/12/02 01:49:43;;;;;;;38.92;21.70;;;;;;;5.58;100.00;96467.22;5094121;28;20052;-73
2021/12/02 01:52:13;;;;;;;33.05;21.85;;;;;;;5.54;100.00;96458.91;5094180;28;20350;-76
2021/12/02 01:54:44;;;;;;;38.75;22.35;;;;;;;5.54;100.00;96461.63;5093694;28;20131;-75
2021/12/02 01:57:35;;;;;;;43.20;23.33;;;;;;;5.54;100.00;96458.09;5083095;28;20417;-77
2021/12/02 02:00:27;;;;;;;36.33;21.17;;;;;;;5.45;100.00;96457.19;5073211;28;20512;-78
2021/12/02 02:02:53;;;;;;;35.15;20.58;;;;;;;5.41;100.00;96467.81;5073322;28;20067;-77
2021/12/02 02:05:19;;;;;;;36.42;22.50;;;;;;;5.47;100.00;96444.94;5073363;28;20062;-77
2021/12/02 02:08:25;;;;;;;32.88;20.17;;;;;;;5.43;100.00;96446.63;5074224;28;20025;-75
2021/12/02 02:10:50;;;;;;;33.15;18.95;;;;;;;5.39;100.00;96441.00;5076028;28;20075;-76
2021/12/02 02:13:19;;;;;;;30.98;19.63;;;;;;;5.44;100.00;96440.13;5079742;28;20028;-75
2021/12/02 02:15:48;;;;;;;35.30;20.90;;;;;;;5.39;100.00;96432.88;5076135;28;20034;-75
2021/12/02 02:18:20;;;;;;;31.92;18.60;;;;;;;5.36;100.00;96433.47;5075897;28;20036;-76
2021/12/02 02:23:24;;;;;;;31.42;18.83;;;;;;;5.38;100.00;96419.63;5077691;28;20041;-74
2021/12/02 02:25:50;;;;;;;27.85;17.63;;;;;;;5.39;100.00;96416.59;5073752;28;20428;-75
2021/12/02 02:28:15;;;;;;;29.77;17.83;;;;;;;5.39;100.00;96422.03;5073312;28;20077;-74
2021/12/02 02:30:42;;;;;;;29.15;19.10;;;;;;;5.37;100.00;96418.00;5073008;28;20591;-76
2021/12/02 02:33:10;;;;;;;36.58;18.08;;;;;;;5.36;100.00;96414.50;5077695;28;20523;-75
2021/12/02 02:35:36;;;;;;;28.20;17.85;;;;;;;5.45;100.00;96414.59;5092232;28;20028;-80
2021/12/02 02:38:01;;;;;;;31.60;18.95;;;;;;;5.35;100.00;96404.78;5093657;28;20054;-75
2021/12/02 02:40:27;;;;;;;27.50;17.08;;;;;;;5.32;100.00;96399.94;5093541;28;20020;-75
2021/12/02 02:43:07;;;;;;;35.92;18.08;;;;;;;5.29;100.00;96395.09;5093338;28;20032;-77
2021/12/02 02:45:33;;;;;;;33.25;17.65;;;;;;;5.23;100.00;96380.03;5091835;28;20028;-74
2021/12/02 02:47:58;;;;;;;28.33;18.13;;;;;;;5.29;100.00;96389.69;5093455;28;20487;-75
2021/12/02 02:50:24;;;;;;;29.48;17.45;;;;;;;5.32;100.00;96375.56;5093067;28;20111;-74
2021/12/02 02:53:02;;;;;;;29.10;18.23;;;;;;;5.30;100.00;96385.06;5102567;28;20031;-73
2021/12/02 02:55:28;;;;;;;35.88;21.55;;;;;;;5.26;100.00;96379.44;5113362;28;20048;-73
2021/12/02 02:58:11;;;;;;;31.25;20.77;;;;;;;5.27;100.00;96375.63;5115304;28;20432;-75
2021/12/02 03:00:41;;;;;;;31.67;21.00;;;;;;;5.25;100.00;96377.03;5118780;28;20023;-78
2021/12/02 03:08:40;;;;;;;37.92;25.63;;;;;;;5.05;100.00;96375.50;5097301;28;20038;-75
2021/12/02 03:11:08;;;;;;;38.13;22.85;;;;;;;5.05;100.00;96359.25;5092920;28;20389;-75
2021/12/02 03:13:57;;;;;;;34.58;21.20;;;;;;;5.04;100.00;96365.78;5092727;28;20378;-75
2021/12/02 03:19:25;;;;;;;31.83;19.23;;;;;;;5.20;100.00;96358.97;5069914;28;20046;-74
2021/12/02 03:21:52;;;;;;;30.50;20.42;;;;;;;5.22;100.00;96345.94;5088563;28;20048;-74
2021/12/02 03:24:18;;;;;;;28.48;19.77;;;;;;;5.21;100.00;96366.00;5095208;28;20035;-76
2021/12/02 03:26:43;;;;;;;28.17;18.45;;;;;;;5.27;100.00;96359.38;5097466;28;20021;-77
2021/12/02 03:29:09;;;;;;;32.30;20.85;;;;;;;5.25;100.00;96345.31;5092515;28;20063;-74
2021/12/02 03:31:35;;;;;;;32.53;21.65;;;;;;;5.27;100.00;96345.00;5092675;28;20039;-75
2021/12/02 03:34:00;;;;;;;32.67;19.92;;;;;;;5.27;100.00;96342.31;5092398;28;20773;-75
2021/12/02 03:36:27;;;;;;;33.17;20.52;;;;;;;5.30;100.00;96337.09;5091118;28;20016;-75
2021/12/02 03:38:53;;;;;;;30.50;20.65;;;;;;;5.29;100.00;96340.88;5092138;28;20477;-75
2021/12/02 03:41:19;;;;;;;29.65;20.60;;;;;;;5.18;100.00;96341.41;5091940;28;20028;-74
2021/12/02 03:43:47;;;;;;;34.03;21.73;;;;;;;5.23;100.00;96341.31;5092094;28;20488;-75
2021/12/02 03:46:16;;;;;;;31.98;19.60;;;;;;;5.27;100.00;96342.31;5092531;28;20020;-74
2021/12/02 03:48:42;;;;;;;36.10;23.27;;;;;;;5.15;100.00;96345.50;5091920;28;20028;-74
2021/12/02 03:51:09;;;;;;;32.47;22.17;;;;;;;5.14;100.00;96324.94;5091508;28;20031;-75
2021/12/02 03:53:35;;;;;;;31.23;21.63;;;;;;;5.24;100.00;96343.72;5091671;28;20028;-75
2021/12/02 03:56:01;;;;;;;31.67;20.77;;;;;;;5.26;100.00;96340.72;5091652;28;20074;-75
2021/12/02 03:58:28;;;;;;;32.60;20.65;;;;;;;5.28;100.00;96336.59;5092530;28;20496;-75
2021/12/02 04:00:53;;;;;;;40.53;22.92;;;;;;;5.24;100.00;96321.22;5093226;28;20491;-74
2021/12/02 04:03:19;;;;;;;33.08;22.25;;;;;;;5.16;100.00;96313.81;5094254;28;20020;-76
2021/12/02 04:05:45;;;;;;;23.02;16.38;;;;;;;5.20;100.00;96318.31;5094423;28;20024;-76
2021/12/02 04:08:11;;;;;;;28.50;16.60;;;;;;;5.21;100.00;96328.06;5093226;28;20400;-75
2021/12/02 04:10:38;;;;;;;27.30;17.00;;;;;;;5.30;100.00;96320.81;5092345;28;20046;-84
2021/12/02 04:13:18;;;;;;;28.27;15.70;;;;;;;5.28;100.00;96306.78;5093232;28;20024;-74
2021/12/02 04:15:49;;;;;;;24.92;15.45;;;;;;;5.17;100.00;96304.59;5091668;28;20476;-75
2021/12/02 04:18:15;;;;;;;24.58;15.35;;;;;;;5.21;100.00;96310.97;5091643;28;20028;-74
2021/12/02 04:20:40;;;;;;;26.35;16.33;;;;;;;5.20;100.00;96299.34;5091408;28;20039;-73
2021/12/02 04:23:06;;;;;;;34.45;17.85;;;;;;;5.21;100.00;96305.56;5091299;28;20072;-75
2021/12/02 04:25:31;;;;;;;45.35;22.02;;;;;;;5.17;100.00;96299.94;5091509;28;20039;-76
2021/12/02 04:27:57;;;;;;;54.30;25.25;;;;;;;5.23;100.00;96284.41;5091710;28;20024;-74
2021/12/02 04:30:25;;;;;;;72.55;30.23;;;;;;;5.12;100.00;96278.38;5091548;28;20464;-77
2021/12/02 04:32:51;;;;;;;67.40;32.17;;;;;;;5.05;100.00;96269.84;5092954;28;20024;-75
2021/12/02 04:35:17;;;;;;;80.43;32.05;;;;;;;5.04;100.00;96260.13;5097112;28;20080;-76
2021/12/02 04:37:44;;;;;;;65.63;29.80;;;;;;;5.04;100.00;96257.41;5093623;28;20480;-75
2021/12/02 04:40:18;;;;;;;69.85;26.38;;;;;;;4.96;100.00;96260.81;5091788;28;20031;-75
2021/12/02 04:42:43;;;;;;;56.33;22.90;;;;;;;5.01;100.00;96263.41;5094216;28;20045;-75
2021/12/02 04:45:09;;;;;;;35.67;15.50;;;;;;;5.04;100.00;96268.25;5093865;28;20036;-75
2021/12/02 04:47:35;;;;;;;34.47;14.70;;;;;;;5.02;100.00;96275.88;5091398;28;20027;-75
2021/12/02 04:50:00;;;;;;;33.30;16.73;;;;;;;4.88;100.00;96280.50;5091224;28;20031;-76
2021/12/02 04:52:26;;;;;;;50.03;21.88;;;;;;;4.75;100.00;96271.25;5091018;28;20925;-74
2021/12/02 04:54:51;;;;;;;61.20;24.58;;;;;;;4.86;100.00;96274.53;5088706;28;20048;-78
2021/12/02 04:57:17;;;;;;;54.83;22.67;;;;;;;4.86;100.00;96278.06;5090876;28;20036;-74
2021/12/02 04:59:43;;;;;;;51.83;22.17;;;;;;;4.83;100.00;96267.84;5090550;28;20020;-75
2021/12/02 05:02:08;;;;;;;28.60;13.70;;;;;;;4.77;100.00;96258.19;5090346;28;20051;-74
2021/12/02 05:04:33;;;;;;;22.45;11.48;;;;;;;4.73;100.00;96262.59;5091216;28;20491;-76
2021/12/02 05:06:59;;;;;;;20.80;12.50;;;;;;;4.72;100.00;96271.03;5090841;28;20035;-75
2021/12/02 05:09:24;;;;;;;27.58;14.98;;;;;;;4.73;100.00;96272.66;5090982;28;20066;-75
2021/12/02 05:11:50;;;;;;;23.48;13.90;;;;;;;4.74;100.00;96261.50;5089421;28;20036;-74
2021/12/02 05:14:15;;;;;;;26.52;13.13;;;;;;;4.80;100.00;96273.03;5090981;28;20028;-75
2021/12/02 05:16:41;;;;;;;25.20;14.10;;;;;;;4.81;100.00;96267.34;5091853;28;20485;-76
2021/12/02 05:19:07;;;;;;;25.55;12.80;;;;;;;4.78;100.00;96278.78;5096874;28;20039;-75
2021/12/02 05:21:33;;;;;;;23.58;12.60;;;;;;;4.90;100.00;96275.56;5092754;28;20078;-75
2021/12/02 05:23:58;;;;;;;22.95;12.18;;;;;;;4.79;100.00;96277.66;5090722;28;20071;-76
2021/12/02 05:26:25;;;;;;;18.50;10.57;;;;;;;4.70;100.00;96256.97;5090738;28;20078;-75
2021/12/02 05:28:52;;;;;;;18.30;11.85;;;;;;;4.62;100.00;96296.41;5090344;28;20027;-75
2021/12/02 05:31:18;;;;;;;18.88;10.98;;;;;;;4.71;100.00;96293.78;5090358;28;20024;-75
2021/12/02 05:33:44;;;;;;;20.50;10.40;;;;;;;4.70;100.00;96270.53;5090249;28;20462;-77
2021/12/02 05:36:09;;;;;;;21.17;11.65;;;;;;;4.60;100.00;96292.38;5088730;28;20032;-76
2021/12/02 05:38:35;;;;;;;21.40;11.27;;;;;;;4.65;100.00;96292.28;5089143;28;20032;-74
2021/12/02 05:41:01;;;;;;;19.23;12.90;;;;;;;4.67;100.00;96282.75;5091914;28;20085;-75
2021/12/02 05:43:27;;;;;;;19.10;11.77;;;;;;;4.70;100.00;96278.63;5099322;28;20446;-76
2021/12/02 05:45:53;;;;;;;31.23;14.88;;;;;;;4.67;100.00;96269.22;5104461;28;20016;-76
2021/12/02 05:48:18;;;;;;;38.30;15.85;;;;;;;4.78;100.00;96270.66;5090390;28;20035;-74
2021/12/02 05:50:44;;;;;;;27.63;14.38;;;;;;;4.81;100.00;96263.81;5090963;28;20377;-83
2021/12/02 05:53:10;;;;;;;29.50;14.60;;;;;;;4.81;100.00;96270.03;5091758;28;20389;-77
2021/12/02 05:55:35;;;;;;;22.80;12.57;;;;;;;4.82;100.00;96265.44;5090683;28;20131;-76
2021/12/02 05:58:01;;;;;;;32.35;16.67;;;;;;;4.80;100.00;96264.91;5089911;28;20020;-75
2021/12/02 06:00:26;;;;;;;27.23;15.52;;;;;;;4.85;100.00;96254.00;5093336;28;20012;-75
2021/12/02 06:02:52;;;;;;;21.05;12.05;;;;;;;4.86;100.00;96266.41;5093962;28;20469;-74
2021/12/02 06:05:20;;;;;;;22.52;12.48;;;;;;;4.84;100.00;96260.50;5093053;28;20020;-74
2021/12/02 06:07:56;;;;;;;23.42;12.95;;;;;;;4.91;100.00;96252.81;5092896;28;20472;-76
2021/12/02 06:10:21;;;;;;;;;;;;;;;4.97;100.00;96248.06;5093861;28;20114;-83
2021/12/02 06:12:46;;;;;;;;;;;;;;;4.95;100.00;96237.53;5094347;28;20002;-77
2021/12/02 06:15:12;;;;;;;17.60;10.50;;;;;;;4.92;100.00;96238.13;5094114;28;19915;-84
2021/12/02 06:17:38;;;;;;;17.98;11.35;;;;;;;4.88;100.00;96248.00;5094202;28;20008;-75
2021/12/02 06:20:07;;;;;;;18.65;11.20;;;;;;;4.96;100.00;96244.56;5093256;28;20055;-81
2021/12/02 06:22:33;;;;;;;19.77;13.00;;;;;;;4.95;100.00;96242.94;5093472;28;20081;-81
2021/12/02 06:27:46;;;;;;;22.17;10.95;;;;;;;5.08;100.00;96246.75;5096390;28;20811;-75
2021/12/02 06:30:13;;;;;;;24.40;12.52;;;;;;;5.22;100.00;96251.06;5081439;28;20041;-73
2021/12/02 06:32:39;;;;;;;17.83;11.13;;;;;;;5.19;100.00;96257.09;5073193;28;20032;-75
2021/12/02 06:35:06;;;;;;;20.83;11.05;;;;;;;5.17;100.00;96251.16;5091750;28;20358;-76
2021/12/02 06:37:31;;;;;;;18.00;10.15;;;;;;;5.18;100.00;96269.03;5089356;28;20016;-75
2021/12/02 06:39:57;;;;;;;15.48;10.07;;;;;;;5.14;100.00;96251.78;5092424;28;20031;-75
2021/12/02 06:42:22;;;;;;;16.63;10.15;;;;;;;5.15;100.00;96255.28;5092269;28;20012;-75
2021/12/02 06:44:47;;;;;;;16.55;9.02;;;;;;;5.16;100.00;96256.91;5093482;28;20035;-75
2021/12/02 06:47:14;;;;;;;13.75;8.95;;;;;;;5.20;100.00;96253.25;5096022;28;20020;-76
2021/12/02 06:49:40;;;;;;;15.20;9.98;;;;;;;5.20;100.00;96249.78;5097697;28;20054;-79
2021/12/02 06:52:11;;;;;;;14.10;9.07;;;;;;;5.20;100.00;96266.03;5099688;28;20111;-77
2021/12/02 06:54:36;;;;;;;13.25;8.85;;;;;;;5.11;100.00;96276.75;5099283;28;20072;-80
2021/12/02 06:57:02;;;;;;;19.95;10.18;;;;;;;5.13;100.00;96293.53;5093314;28;20139;-76
2021/12/02 06:59:28;;;;;;;14.70;9.48;;;;;;;5.30;100.00;96287.47;5091137;28;20100;-75
2021/12/02 07:01:53;;;;;;;16.17;10.25;;;;;;;5.21;100.00;96268.44;5092044;28;20058;-75
2021/12/02 07:04:19;;;;;;;22.02;11.23;;;;;;;5.24;100.00;96264.31;5090465;28;20036;-74
2021/12/02 07:06:44;;;;;;;17.35;10.00;;;;;;;5.18;100.00;96263.63;5091113;28;20040;-75
2021/12/02 07:09:10;;;;;;;20.67;11.32;;;;;;;5.16;100.00;96282.09;5094405;28;20032;-77
2021/12/02 07:11:36;;;;;;;19.55;10.85;;;;;;;5.21;100.00;96268.44;5099260;28;20034;-75
2021/12/02 07:14:05;;;;;;;18.98;11.55;;;;;;;5.04;100.00;96262.03;5098006;28;20032;-73
2021/12/02 07:16:32;;;;;;;20.45;12.88;;;;;;;5.05;100.00;96263.63;5093737;28;20034;-76
2021/12/02 07:18:59;;;;;;;23.42;13.15;;;;;;;4.96;100.00;96273.56;5092618;28;20036;-75
2021/12/02 07:21:25;;;;;;;23.10;13.18;;;;;;;5.03;100.00;96258.50;5092033;28;20366;-76
2021/12/02 07:23:51;;;;;;;18.92;11.43;;;;;;;5.13;100.00;96271.06;5091691;28;20042;-76
2021/12/02 07:26:17;;;;;;;19.67;10.23;;;;;;;5.08;100.00;96276.56;5091642;28;20504;-76
2021/12/02 07:28:47;;;;;;;21.20;10.10;;;;;;;5.03;100.00;96280.19;5091459;28;20031;-75
2021/12/02 07:31:13;;;;;;;16.20;9.60;;;;;;;5.09;100.00;96286.31;5091266;28;20107;-77
2021/12/02 07:33:42;;;;;;;21.25;10.45;;;;;;;5.16;100.00;96289.41;5091188;28;20404;-76
2021/12/02 07:36:07;;;;;;;15.57;9.57;;;;;;;5.12;100.00;96294.63;5091167;28;20362;-74
2021/12/02 07:38:36;;;;;;;16.40;8.48;;;;;;;5.15;100.00;96296.75;5090414;28;20035;-74
2021/12/02 07:41:05;;;;;;;16.88;8.48;;;;;;;5.22;100.00;96285.50;5090900;28;20090;-74
2021/12/02 07:43:38;;;;;;;16.90;8.40;;;;;;;5.18;100.00;96285.28;5088511;28;20073;-76
2021/12/02 07:46:04;;;;;;;23.55;11.70;;;;;;;5.19;100.00;96286.91;5091226;28;20059;-77
2021/12/02 07:48:30;;;;;;;22.25;10.88;;;;;;;5.12;100.00;96286.50;5091134;28;20656;-73
2021/12/02 07:51:00;;;;;;;18.80;9.85;;;;;;;5.07;100.00;96283.91;5090864;28;20055;-75
2021/12/02 07:53:28;;;;;;;28.90;13.63;;;;;;;5.01;100.00;96293.22;5090604;28;20024;-76
2021/12/02 07:56:01;;;;;;;28.83;13.32;;;;;;;5.05;100.00;96290.72;5087202;28;20043;-76
2021/12/02 07:58:30;;;;;;;34.78;16.00;;;;;;;5.05;100.00;96302.34;5088457;28;20041;-75
2021/12/02 08:01:00;;;;;;;33.65;14.73;;;;;;;5.03;100.00;96280.19;5090916;28;20031;-75
2021/12/02 08:03:27;;;;;;;35.63;14.27;;;;;;;5.09;100.00;96283.59;5090501;28;20050;-76
2021/12/02 08:05:53;;;;;;;38.58;17.65;;;;;;;5.10;100.00;96285.22;5090568;28;20951;-76
2021/12/02 08:08:19;;;;;;;36.53;16.85;;;;;;;5.08;100.00;96285.50;5090103;28;20040;-75
2021/12/02 08:10:45;;;;;;;30.90;14.18;;;;;;;5.17;100.00;96278.25;5090145;28;20078;-76
2021/12/02 08:13:14;;;;;;;20.90;11.13;;;;;;;5.12;100.00;96278.38;5090430;28;20024;-76
2021/12/02 08:15:40;;;;;;;18.52;9.82;;;;;;;5.21;100.00;96297.44;5091033;28;20130;-76
2021/12/02 08:18:06;;;;;;;22.42;9.15;;;;;;;5.23;100.00;96325.06;5090516;28;20565;-76
2021/12/02 08:20:36;;;;;;;15.52;9.00;;;;;;;5.20;100.00;96326.44;5090185;28;20062;-77
2021/12/02 08:23:04;;;;;;;21.52;9.82;;;;;;;5.14;100.00;96321.41;5089901;28;20083;-76
2021/12/02 08:25:33;;;;;;;18.90;10.50;;;;;;;5.15;100.00;96315.72;5090548;28;20726;-77
2021/12/02 08:28:00;;;;;;;16.80;8.75;;;;;;;5.16;100.00;96308.38;5091415;28;20032;-81
2021/12/02 08:30:27;;;;;;;18.77;9.90;;;;;;;5.23;100.00;96306.88;5093693;28;20020;-77
2021/12/02 08:32:54;;;;;;;18.77;9.80;;;;;;;5.20;100.00;96312.88;5093443;28;20012;-75
2021/12/02 08:35:20;;;;;;;18.75;10.00;;;;;;;5.29;100.00;96327.34;5092738;28;20111;-76
2021/12/02 08:37:49;;;;;;;17.90;9.95;;;;;;;5.50;100.00;96324.22;5088996;28;20028;-80
2021/12/02 08:40:22;;;;;;;15.55;9.18;;;;;;;5.61;100.00;96331.03;5090293;28;20024;-76
2021/12/02 08:42:48;;;;;;;16.10;8.60;;;;;;;5.54;100.00;96320.63;5090372;28;20054;-75
2021/12/02 08:45:15;;;;;;;14.57;7.35;;;;;;;5.56;100.00;96323.81;5089684;28;20032;-75
2021/12/02 08:47:44;;;;;;;12.95;7.45;;;;;;;5.57;100.00;96321.91;5090312;28;20107;-78
2021/12/02 08:50:20;;;;;;;10.43;6.30;;;;;;;5.48;100.00;96315.59;5087336;28;20481;-75
2021/12/02 08:52:48;;;;;;;10.30;6.00;;;;;;;5.69;100.00;96330.31;5082646;28;20046;-75
2021/12/02 08:55:15;;;;;;;9.65;5.47;;;;;;;5.68;100.00;96337.66;5089582;28;20489;-75
2021/12/02 08:57:41;;;;;;;8.63;5.72;;;;;;;5.86;100.00;96341.34;5090316;28;20489;-76
2021/12/02 09:00:09;;;;;;;10.88;5.95;;;;;;;5.64;100.00;96335.88;5091625;28;20039;-74
2021/12/02 09:02:35;;;;;;;8.80;4.93;;;;;;;5.54;100.00;96341.50;5095408;28;20028;-77
2021/12/02 09:05:01;;;;;;;8.48;5.07;;;;;;;5.34;100.00;96335.38;5097680;28;20062;-79
2021/12/02 09:07:27;;;;;;;12.10;5.95;;;;;;;5.31;100.00;96338.69;5095576;28;20022;-73
2021/12/02 09:09:52;;;;;;;14.70;7.68;;;;;;;5.21;100.00;96328.06;5093376;28;20107;-77
2021/12/02 09:12:18;;;;;;;20.50;9.85;;;;;;;5.15;100.00;96339.28;5089934;28;20429;-74
2021/12/02 09:14:43;;;;;;;30.63;12.55;;;;;;;5.21;100.00;96349.72;5089283;28;20020;-75
2021/12/02 09:17:09;;;;;;;21.17;9.90;;;;;;;5.21;100.00;96343.50;5088910;28;20028;-75
2021/12/02 09:19:34;;;;;;;26.98;11.23;;;;;;;5.28;100.00;96354.75;5089359;28;20503;-75
2021/12/02 09:22:00;;;;;;;15.13;8.60;;;;;;;5.22;100.00;96354.06;5088756;28;20059;-76
2021/12/02 09:24:26;;;;;;;11.95;6.82;;;;;;;5.20;100.00;96353.53;5089231;28;20024;-75
2021/12/02 09:26:53;;;;;;;11.05;6.80;;;;;;;5.17;100.00;96335.16;5090357;28;20051;-74
2021/12/02 09:29:20;;;;;;;13.73;6.40;;;;;;;5.07;100.00;96329.16;5090497;28;20050;-76
2021/12/02 09:31:46;;;;;;;9.85;6.65;;;;;;;4.95;100.00;96318.78;5090241;28;20412;-75
2021/12/02 09:34:12;;;;;;;12.13;7.00;;;;;;;5.03;100.00;96326.25;5094196;28;20035;-75
2021/12/02 09:36:38;;;;;;;12.68;7.55;;;;;;;5.03;100.00;96328.94;5094282;28;20114;-75
2021/12/02 09:39:06;;;;;;;12.32;6.57;;;;;;;5.04;100.00;96333.28;5094542;28;20058;-76
2021/12/02 09:41:32;;;;;;;14.07;6.80;;;;;;;5.07;100.00;96321.84;5094477;28;20024;-75
2021/12/02 09:43:58;;;;;;;19.17;9.27;;;;;;;5.17;100.00;96328.97;5095863;28;20024;-76
2021/12/02 09:46:24;;;;;;;15.02;7.72;;;;;;;5.22;100.00;96329.66;5096860;28;20385;-74
2021/12/02 09:48:51;;;;;;;12.48;6.57;;;;;;;5.27;100.00;96321.44;5094300;28;20035;-75
2021/12/02 09:51:24;;;;;;;12.35;5.90;;;;;;;5.35;100.00;96309.91;5092608;28;20028;-75
2021/12/02 09:53:58;;;;;;;10.65;5.10;;;;;;;5.35;100.00;96301.75;5093931;28;20020;-75
2021/12/02 09:56:32;;;;;;;8.55;5.40;;;;;;;5.38;100.00;96294.94;5093719;28;20412;-75
2021/12/02 09:59:05;;;;;;;12.43;5.35;;;;;;;5.34;100.00;96293.91;5094340;28;20024;-74
2021/12/02 10:02:38;;;;;;;11.00;4.38;;;;;;;5.35;100.00;96295.53;5093852;28;20042;-75
2021/12/02 10:04:27;;;;;;;7.78;4.60;;;;;;;5.37;100.00;96285.19;5084177;28;20040;-74
2021/12/02 10:07:10;;;;;;;8.80;3.83;;;;;;;5.27;100.00;96285.38;5092949;28;20034;-74
2021/12/02 10:09:52;;;;;;;7.53;3.20;;;;;;;5.27;100.00;96283.47;5093989;28;20028;-75
2021/12/02 10:12:20;;;;;;;8.32;4.13;;;;;;;5.24;100.00;96286.00;5094018;28;20052;-75
2021/12/02 10:14:57;;;;;;;8.98;4.05;;;;;;;5.19;100.00;96273.38;5092329;28;20020;-74
2021/12/02 10:20:34;;;;;;;6.55;3.50;;;;;;;5.24;100.00;96275.16;5069987;28;20086;-75
2021/12/02 10:23:17;;;;;;;6.18;3.40;;;;;;;5.18;100.00;96276.34;5093363;28;20389;-76
2021/12/02 10:25:45;;;;;;;10.27;4.38;;;;;;;5.18;100.00;96273.66;5106151;28;20023;-74
2021/12/02 10:28:13;;;;;;;10.55;5.00;;;;;;;5.11;100.00;96260.50;5113094;28;20051;-74
2021/12/02 10:30:41;;;;;;;10.88;5.90;;;;;;;5.08;100.00;96258.41;5111775;28;20031;-75
2021/12/02 10:33:07;;;;;;;15.68;8.23;;;;;;;5.08;100.00;96252.97;5114263;28;20035;-74
2021/12/02 10:35:38;;;;;;;22.13;10.48;;;;;;;5.07;100.00;96256.81;5115229;28;20020;-76
2021/12/02 10:38:04;;;;;;;21.63;9.65;;;;;;;5.11;100.00;96255.09;5115765;27;20015;-75
2021/12/02 10:40:29;;;;;;;32.05;10.43;;;;;;;5.15;100.00;96253.38;5115763;27;20048;-75
2021/12/02 10:43:06;;;;;;;22.92;10.75;;;;;;;5.21;100.00;96245.94;5109565;28;20037;-73
2021/12/02 10:45:31;;;;;;;16.98;8.23;;;;;;;5.29;100.00;96254.16;5092688;28;20118;-73
2021/12/02 10:47:58;;;;;;;16.20;8.15;;;;;;;5.34;100.00;96250.53;5093482;28;20517;-74
2021/12/02 10:50:26;;;;;;;13.15;6.70;;;;;;;5.31;100.00;96245.72;5093034;28;20032;-78
2021/12/02 10:52:52;;;;;;;17.25;6.75;;;;;;;5.39;100.00;96237.69;5092584;28;20020;-75
2021/12/02 10:55:22;;;;;;;9.70;5.60;;;;;;;5.41;100.00;96231.97;5093222;28;20532;-74
2021/12/02 10:57:56;;;;;;;8.85;5.50;;;;;;;5.54;100.00;96239.28;5093102;28;20028;-74
2021/12/02 11:00:30;;;;;;;11.73;4.97;;;;;;;5.49;100.00;96231.22;5097531;28;20051;-80
2021/12/02 11:02:59;;;;;;;11.13;5.47;;;;;;;5.54;100.00;96233.03;5097266;28;20032;-75
2021/12/02 11:05:34;;;;;;;9.70;5.18;;;;;;;5.47;100.00;96238.88;5093467;28;20035;-75
2021/12/02 11:08:05;;;;;;;;;;;;;;;5.55;100.00;96235.44;5097567;28;20020;-77
2021/12/02 11:10:40;;;;;;;7.95;4.45;;;;;;;5.63;100.00;96223.88;5096702;28;19915;-76
2021/12/02 11:13:07;;;;;;;9.77;5.13;;;;;;;5.66;100.00;96225.16;5097566;28;20055;-74
2021/12/02 11:15:36;;;;;;;9.68;4.88;;;;;;;5.69;100.00;96219.13;5099808;28;20146;-76
2021/12/02 11:18:07;;;;;;;10.52;4.65;;;;;;;5.66;100.00;96208.91;5096517;28;20020;-75
2021/12/02 11:20:41;;;;;;;16.00;6.93;;;;;;;5.49;100.00;96197.88;5092949;28;20400;-74
2021/12/02 11:23:12;;;;;;;21.90;10.65;;;;;;;5.49;100.00;96197.88;5092668;28;20602;-74
2021/12/02 11:25:58;;;;;;;25.92;11.90;;;;;;;5.38;100.00;96200.84;5092790;28;20035;-73
2021/12/02 11:28:26;;;;;;;28.70;14.73;;;;;;;5.43;100.00;96215.38;5093873;28;20035;-76
2021/12/02 11:30:52;;;;;;;35.58;15.25;;;;;;;5.45;100.00;96221.31;5094785;28;20024;-75
2021/12/02 11:33:20;;;;;;;35.78;15.10;;;;;;;5.37;100.00;96201.16;5093067;28;20074;-74
2021/12/02 11:35:48;;;;;;;35.70;16.33;;;;;;;5.40;100.00;96206.75;5093731;28;20114;-74
2021/12/02 11:38:18;;;;;;;26.85;12.70;;;;;;;5.38;100.00;96213.59;5092497;28;20028;-74
2021/12/02 11:41:04;;;;;;;22.05;11.20;;;;;;;5.43;100.00;96204.53;5094952;28;20024;-76
2021/12/02 11:43:34;;;;;;;;;;;;;;;5.42;100.00;96195.59;5093213;28;20831;-76
2021/12/02 11:46:01;;;;;;;16.90;8.88;;;;;;;5.37;100.00;96195.72;5093206;28;20388;-75
2021/12/02 11:48:37;;;;;;;20.70;9.70;;;;;;;5.26;100.00;96188.94;5093327;28;20039;-76